createdAt,value
2023-07-25T00:03:28.180Z,1999.90
2023-07-25T00:08:30.730Z,1999.90
2023-07-25T00:13:32.601Z,1999.90
2023-07-25T00:18:35.733Z,1999.90
2023-07-25T00:23:37.538Z,1999.90
2023-07-25T00:28:39.249Z,1999.90
2023-07-25T00:33:42.361Z,1999.90
2023-07-25T00:38:44.127Z,1999.90
2023-07-25T00:43:45.824Z,1999.90
2023-07-25T00:48:49.139Z,1999.90
2023-07-25T00:53:52.034Z,1999.90
2023-07-25T00:58:54.590Z,1999.90
2023-07-25T01:03:57.925Z,1999.90
2023-07-25T01:08:59.759Z,1999.90
2023-07-25T01:14:01.604Z,1523.85
2023-07-25T01:19:05.106Z,1.23
2023-07-25T01:24:08.391Z,2.17
2023-07-25T01:29:10.167Z,0.70
2023-07-25T01:34:11.970Z,0.77
2023-07-25T01:39:15.072Z,0.95
2023-07-25T01:44:16.855Z,10.65
2023-07-25T01:49:18.608Z,1999.90
2023-07-25T01:54:21.717Z,1999.90
2023-07-25T01:59:23.504Z,1999.90
2023-07-25T02:04:25.294Z,1999.90
2023-07-25T02:09:28.457Z,1999.90
2023-07-25T02:14:30.242Z,1999.90
2023-07-25T02:19:32.102Z,1999.90
2023-07-25T02:24:35.298Z,1999.90
2023-07-25T02:29:37.066Z,1999.90
2023-07-25T02:34:40.668Z,1999.90
2023-07-25T02:39:43.786Z,1999.90
2023-07-25T02:44:45.664Z,1999.90
2023-07-25T02:49:47.455Z,1999.90
2023-07-25T02:54:50.626Z,1999.90
2023-07-25T02:59:52.367Z,1999.90
2023-07-25T03:04:54.252Z,1999.90
2023-07-25T03:09:57.580Z,1999.90
2023-07-25T03:14:59.317Z,1999.90
2023-07-25T03:20:01.070Z,1999.90
2023-07-25T03:25:04.475Z,1999.90
2023-07-25T03:30:07.620Z,48.10
2023-07-25T03:35:09.915Z,1999.90
2023-07-25T03:40:13.318Z,1999.90
2023-07-25T03:45:15.210Z,1999.90
2023-07-25T03:50:16.962Z,1534.88
2023-07-25T03:55:20.142Z,172.95
2023-07-25T04:00:22.058Z,184.43
2023-07-25T04:05:23.930Z,17.77
2023-07-25T04:10:59.285Z,1.00
2023-07-25T04:16:02.993Z,24.05
2023-07-25T04:21:04.826Z,1.15
2023-07-25T04:26:08.141Z,0.60
2023-07-25T04:31:10.086Z,0.70
2023-07-25T04:36:11.888Z,0.90
2023-07-25T04:41:15.064Z,0.73
2023-07-25T04:46:16.829Z,0.93
2023-07-25T04:51:18.650Z,0.70
2023-07-25T04:56:21.899Z,0.70
2023-07-25T05:01:23.867Z,0.88
2023-07-25T05:06:25.721Z,0.80
2023-07-25T05:11:29.003Z,0.90
2023-07-25T05:16:33.882Z,1.00
2023-07-25T05:21:35.684Z,0.90
2023-07-25T05:26:38.802Z,2.87
2023-07-25T05:31:40.634Z,2.10
2023-07-25T05:36:42.403Z,97.43
2023-07-25T05:41:45.517Z,1999.90
2023-07-25T05:46:47.263Z,1999.90
2023-07-25T05:51:49.057Z,1999.90
2023-07-25T05:56:52.382Z,1525.20
2023-07-25T06:01:54.295Z,1999.90
2023-07-25T06:06:56.094Z,1999.90
2023-07-25T06:11:59.525Z,1999.90
2023-07-25T06:17:01.351Z,1999.90
2023-07-25T06:22:03.385Z,1999.90
2023-07-25T06:27:07.637Z,1999.90
2023-07-25T06:32:12.012Z,0.20
2023-07-25T06:37:13.810Z,0.27
2023-07-25T06:42:16.979Z,1999.90
2023-07-25T06:47:18.747Z,169.00
2023-07-25T06:52:20.541Z,1999.90
2023-07-25T06:57:23.686Z,1999.90
2023-07-25T07:02:25.561Z,1999.90
2023-07-25T07:07:27.384Z,1999.90
2023-07-25T07:12:30.594Z,1999.90
2023-07-25T07:17:32.342Z,1999.90
2023-07-25T07:22:34.177Z,1999.90
2023-07-25T07:27:37.422Z,1999.90
2023-07-25T07:32:39.276Z,1999.90
2023-07-25T07:37:41.389Z,1999.90
2023-07-25T07:42:44.483Z,1999.90
2023-07-25T07:47:46.358Z,1999.90
2023-07-25T07:52:48.542Z,1999.90
2023-07-25T07:57:51.861Z,1999.90
2023-07-25T08:08:10.319Z,1999.90
2023-07-25T08:13:13.495Z,1516.18
2023-07-25T08:18:15.305Z,1999.90
2023-07-25T08:23:17.065Z,1999.90
2023-07-25T08:28:20.254Z,1999.90
2023-07-25T08:33:22.139Z,5.72
2023-07-25T08:38:23.957Z,398.13
2023-07-25T08:43:29.139Z,27.98
2023-07-25T08:53:41.540Z,29.65
2023-07-25T08:58:45.905Z,32.75
2023-07-25T09:03:49.258Z,23.40
2023-07-25T09:08:51.462Z,26.75
2023-07-25T09:13:54.739Z,36.55
2023-07-25T09:18:56.517Z,19.55
2023-07-25T09:23:59.742Z,16.30
2023-07-25T09:29:02.868Z,16.10
2023-07-25T09:34:04.710Z,15.93
2023-07-25T09:39:06.507Z,18.55
2023-07-25T09:44:10.086Z,320.20
2023-07-25T09:49:11.872Z,13.25
2023-07-25T09:54:13.621Z,18.50
2023-07-25T09:59:17.238Z,99.97
2023-07-25T10:04:19.708Z,248.25
2023-07-25T10:09:24.423Z,0.20
2023-07-25T10:14:27.617Z,13.07
2023-07-25T10:19:44.506Z,14.45
2023-07-25T10:24:46.396Z,18.70
2023-07-25T10:29:49.555Z,17.92
2023-07-25T10:35:00.814Z,13.65
2023-07-25T10:40:24.334Z,16.85
2023-07-25T10:45:53.276Z,14.32
2023-07-25T10:50:55.135Z,16.67
2023-07-25T10:56:10.797Z,18.37
2023-07-25T11:01:38.345Z,15.15
2023-07-25T11:06:40.348Z,12.55
2023-07-25T11:11:46.101Z,14.82
2023-07-25T11:16:51.081Z,13.90
2023-07-25T11:21:52.980Z,13.93
2023-07-25T11:26:54.781Z,14.55
2023-07-25T11:32:02.698Z,13.82
2023-07-25T11:37:10.485Z,15.82
2023-07-25T11:42:12.324Z,13.77
2023-07-25T11:59:21.770Z,19.50
2023-07-25T12:04:23.716Z,14.57
2023-07-25T12:09:33.134Z,13.62
2023-07-25T12:14:36.305Z,16.05
2023-07-25T12:19:38.049Z,12.55
2023-07-25T12:24:43.145Z,11.90
2023-07-25T12:34:48.116Z,78.90
2023-07-25T12:39:49.872Z,201.02
2023-07-25T12:44:52.941Z,180.20
2023-07-25T12:49:54.723Z,28.17
2023-07-25T12:54:56.463Z,34.00
2023-07-25T12:59:59.659Z,64.03
2023-07-25T13:05:01.491Z,32.63
2023-07-25T13:10:03.644Z,25.95
2023-07-25T13:15:31.351Z,1999.90
2023-07-25T13:20:52.028Z,1999.90
2023-07-25T13:59:21.443Z,1999.90
2023-07-25T14:04:23.261Z,1999.90
2023-07-25T14:09:24.979Z,1999.90
2023-07-25T14:14:28.157Z,1999.90
2023-07-25T14:19:30.055Z,1999.90
2023-07-25T14:24:31.893Z,1999.90
2023-07-25T14:29:35.121Z,1999.90
2023-07-25T14:34:36.842Z,1999.90
2023-07-25T14:39:38.625Z,1999.90
2023-07-25T14:44:41.800Z,1999.90
2023-07-25T14:49:43.582Z,1999.90
2023-07-25T14:54:45.285Z,1999.90
2023-07-25T14:59:48.415Z,1999.90
2023-07-25T15:04:50.238Z,1999.90
2023-07-25T15:09:52.041Z,1999.90
2023-07-25T15:14:55.144Z,1999.90
2023-07-25T15:20:09.361Z,1999.90
2023-07-25T15:25:11.088Z,1999.90
2023-07-25T15:30:14.221Z,1999.90
2023-07-25T15:35:17.059Z,1999.90
2023-07-25T15:40:18.837Z,1999.90
2023-07-25T15:45:22.003Z,1999.90
2023-07-25T15:50:23.814Z,1999.90
2023-07-25T15:55:25.623Z,1999.90
2023-07-25T16:00:29.095Z,1999.90
2023-07-25T16:05:30.863Z,1999.90
2023-07-25T16:10:32.611Z,1999.90
2023-07-25T16:15:35.883Z,1999.90
2023-07-25T16:21:15.481Z,1999.90
2023-07-25T16:26:17.233Z,1999.90
2023-07-25T16:36:25.091Z,1999.90
2023-07-25T16:41:26.855Z,1999.90
2023-07-25T16:46:30.072Z,1999.90
2023-07-25T16:51:32.220Z,1999.90
2023-07-25T16:56:34.430Z,1999.90
2023-07-25T17:01:37.804Z,1999.90
2023-07-25T17:06:39.566Z,1999.90
2023-07-25T17:11:41.248Z,1999.90
2023-07-25T17:16:44.360Z,1999.90
2023-07-25T17:21:46.910Z,1999.90
2023-07-25T17:26:48.853Z,1999.90
2023-07-25T17:31:52.089Z,1999.90
2023-07-25T17:36:53.858Z,1999.90
2023-07-25T17:41:55.666Z,1999.90
2023-07-25T17:46:58.852Z,1999.90
2023-07-25T17:52:00.638Z,1999.90
2023-07-25T17:57:02.477Z,1999.90
2023-07-25T18:02:06.413Z,1999.90
2023-07-25T18:07:08.159Z,1999.90
2023-07-25T18:12:10.022Z,1999.90
2023-07-25T18:17:13.201Z,1514.90
2023-07-25T18:22:14.961Z,1999.90
2023-07-25T18:27:16.762Z,1999.90
2023-07-25T18:32:19.912Z,1999.90
2023-07-25T18:37:21.705Z,96.12
2023-07-25T18:42:23.518Z,1999.90
2023-07-25T18:47:34.432Z,12.57
2023-07-25T18:52:37.056Z,1999.90
2023-07-25T18:57:38.855Z,1.02
2023-07-25T19:02:42.071Z,45.05
2023-07-25T19:07:43.987Z,1999.90
2023-07-25T19:12:45.730Z,1999.90
2023-07-25T19:17:49.007Z,1999.90
2023-07-25T19:22:50.771Z,0.20
2023-07-25T19:27:52.519Z,1999.90
2023-07-25T19:32:56.246Z,1999.90
2023-07-25T19:37:57.992Z,1999.90
2023-07-25T19:42:59.747Z,1153.82
2023-07-25T19:48:02.990Z,1999.90
2023-07-25T19:53:04.978Z,1999.90
2023-07-25T19:58:06.774Z,1999.90
2023-07-25T20:14:30.869Z,105.32
2023-07-25T20:20:07.635Z,52.85
2023-07-25T20:25:30.392Z,3.33
2023-07-25T20:30:32.218Z,1999.90
2023-07-25T20:35:38.349Z,1999.90
2023-07-25T20:40:40.374Z,1999.90
2023-07-25T20:45:42.080Z,1999.90
2023-07-25T20:50:48.166Z,1999.90
2023-07-25T20:55:54.912Z,1999.90
2023-07-25T21:00:56.820Z,1999.90
2023-07-25T21:06:00.164Z,1999.90
2023-07-25T21:11:01.954Z,1999.90
2023-07-25T21:16:04.059Z,416.33
2023-07-25T21:21:07.206Z,1999.90
2023-07-25T21:26:08.953Z,1999.90
2023-07-25T21:31:10.753Z,1999.90
2023-07-25T21:36:14.505Z,1999.90
2023-07-25T21:41:16.377Z,1999.90
2023-07-25T21:46:18.218Z,1999.90
2023-07-25T21:51:23.087Z,1999.90
2023-07-25T21:56:24.864Z,1999.90
2023-07-25T22:01:26.718Z,1510.68
2023-07-25T22:06:30.285Z,1999.90
2023-07-25T22:11:32.435Z,1999.90
2023-07-25T22:16:34.400Z,1999.90
2023-07-25T22:21:38.231Z,175.85
2023-07-25T22:26:40.012Z,122.35
2023-07-25T22:31:41.827Z,1999.90
2023-07-25T22:36:44.994Z,1999.90
2023-07-25T22:41:46.769Z,1999.90
2023-07-25T22:46:48.465Z,1999.90
2023-07-25T22:51:51.666Z,1999.90
2023-07-25T22:56:53.569Z,1999.90
2023-07-25T23:07:41.388Z,1999.90
2023-07-25T23:12:43.278Z,1999.90
2023-07-25T23:17:45.188Z,1999.90
2023-07-25T23:22:48.510Z,1999.90
2023-07-25T23:27:50.410Z,1999.90
2023-07-25T23:32:52.388Z,1999.90
2023-07-25T23:37:55.728Z,1999.90
2023-07-25T23:42:57.672Z,1999.90
2023-07-25T23:47:59.596Z,1999.90
2023-07-25T23:53:02.968Z,1999.90
2023-07-25T23:58:04.834Z,40.40
